sensor_id;sensor_type;location;lat;lon;timestamp;pressure;altitude;pressure_sealevel;temperature;humidity
34081;BME280;20358;50.272;19.026;2022-09-09T00:02:19;97943.69;;;16.85;96.14
34081;BME280;20358;50.272;19.026;2022-09-09T00:05:32;97942.00;;;16.84;95.92
34081;BME280;20358;50.272;19.026;2022-09-09T00:08:46;97942.97;;;16.83;95.80
34081;BME280;20358;50.272;19.026;2022-09-09T00:12:01;97937.25;;;16.78;95.72
34081;BME280;20358;50.272;19.026;2022-09-09T00:15:13;97939.06;;;16.77;96.00
34081;BME280;20358;50.272;19.026;2022-09-09T00:18:24;97935.81;;;16.74;95.94
34081;BME280;20358;50.272;19.026;2022-09-09T00:21:36;97943.31;;;16.69;96.06
34081;BME280;20358;50.272;19.026;2022-09-09T00:24:44;97935.53;;;16.67;96.20
34081;BME280;20358;50.272;19.026;2022-09-09T00:27:54;97932.03;;;16.67;96.22
34081;BME280;20358;50.272;19.026;2022-09-09T00:31:12;97945.53;;;16.64;96.02
34081;BME280;20358;50.272;19.026;2022-09-09T00:34:21;97943.88;;;16.63;96.23
34081;BME280;20358;50.272;19.026;2022-09-09T00:37:30;97941.34;;;16.61;96.44
34081;BME280;20358;50.272;19.026;2022-09-09T00:40:42;97937.84;;;16.61;96.37
34081;BME280;20358;50.272;19.026;2022-09-09T00:44:00;97934.25;;;16.62;96.38
34081;BME280;20358;50.272;19.026;2022-09-09T00:47:21;97945.78;;;16.61;96.41
34081;BME280;20358;50.272;19.026;2022-09-09T00:50:44;97951.34;;;16.57;96.44
34081;BME280;20358;50.272;19.026;2022-09-09T00:54:12;97955.22;;;16.53;96.52
34081;BME280;20358;50.272;19.026;2022-09-09T00:57:26;97958.56;;;16.55;97.04
34081;BME280;20358;50.272;19.026;2022-09-09T01:00:41;97959.25;;;16.57;96.87
34081;BME280;20358;50.272;19.026;2022-09-09T01:03:53;97963.59;;;16.58;96.79
34081;BME280;20358;50.272;19.026;2022-09-09T01:07:09;97969.22;;;16.65;96.75
34081;BME280;20358;50.272;19.026;2022-09-09T01:10:26;97967.84;;;16.71;96.36
34081;BME280;20358;50.272;19.026;2022-09-09T01:13:35;97978.88;;;16.76;96.40
34081;BME280;20358;50.272;19.026;2022-09-09T01:16:47;97980.28;;;16.80;95.99
34081;BME280;20358;50.272;19.026;2022-09-09T01:20:03;97977.38;;;16.83;95.75
34081;BME280;20358;50.272;19.026;2022-09-09T01:23:41;97979.78;;;16.86;95.79
34081;BME280;20358;50.272;19.026;2022-09-09T01:27:05;97986.03;;;16.85;95.50
34081;BME280;20358;50.272;19.026;2022-09-09T01:30:14;97979.03;;;16.84;95.20
34081;BME280;20358;50.272;19.026;2022-09-09T01:33:22;97990.47;;;16.84;95.05
34081;BME280;20358;50.272;19.026;2022-09-09T01:36:33;97980.72;;;16.85;94.85
34081;BME280;20358;50.272;19.026;2022-09-09T01:39:43;97982.78;;;16.81;94.38
34081;BME280;20358;50.272;19.026;2022-09-09T01:42:56;97986.53;;;16.79;94.04
34081;BME280;20358;50.272;19.026;2022-09-09T01:46:04;97987.09;;;16.73;93.98
34081;BME280;20358;50.272;19.026;2022-09-09T01:49:12;97995.53;;;16.67;93.83
34081;BME280;20358;50.272;19.026;2022-09-09T01:52:18;97997.03;;;16.60;93.88
34081;BME280;20358;50.272;19.026;2022-09-09T01:55:29;97989.84;;;16.50;93.92
34081;BME280;20358;50.272;19.026;2022-09-09T01:58:48;97996.63;;;16.43;94.39
34081;BME280;20358;50.272;19.026;2022-09-09T02:02:09;97993.53;;;16.38;94.35
34081;BME280;20358;50.272;19.026;2022-09-09T02:05:30;97998.38;;;16.33;94.31
34081;BME280;20358;50.272;19.026;2022-09-09T02:08:43;97997.94;;;16.28;94.50
34081;BME280;20358;50.272;19.026;2022-09-09T02:11:55;97999.59;;;16.29;95.13
34081;BME280;20358;50.272;19.026;2022-09-09T02:15:27;98001.53;;;16.27;94.90
34081;BME280;20358;50.272;19.026;2022-09-09T02:18:40;98006.25;;;16.24;95.04
34081;BME280;20358;50.272;19.026;2022-09-09T02:21:50;98010.09;;;16.20;95.30
34081;BME280;20358;50.272;19.026;2022-09-09T02:24:59;98003.00;;;16.20;95.51
34081;BME280;20358;50.272;19.026;2022-09-09T02:28:08;98009.94;;;16.21;95.33
34081;BME280;20358;50.272;19.026;2022-09-09T02:31:19;98010.94;;;16.20;95.45
34081;BME280;20358;50.272;19.026;2022-09-09T02:34:30;98010.22;;;16.18;95.26
34081;BME280;20358;50.272;19.026;2022-09-09T02:37:39;98023.69;;;16.15;95.41
34081;BME280;20358;50.272;19.026;2022-09-09T02:40:50;98024.06;;;16.11;95.28
34081;BME280;20358;50.272;19.026;2022-09-09T02:43:57;98017.22;;;16.08;95.43
34081;BME280;20358;50.272;19.026;2022-09-09T02:47:25;98029.69;;;16.06;95.41
34081;BME280;20358;50.272;19.026;2022-09-09T02:50:43;98032.72;;;16.02;95.29
34081;BME280;20358;50.272;19.026;2022-09-09T02:54:04;98040.19;;;15.96;95.37
34081;BME280;20358;50.272;19.026;2022-09-09T02:57:17;98029.00;;;15.93;95.44
34081;BME280;20358;50.272;19.026;2022-09-09T03:00:27;98034.31;;;15.93;95.13
34081;BME280;20358;50.272;19.026;2022-09-09T03:03:39;98034.44;;;15.91;94.90
34081;BME280;20358;50.272;19.026;2022-09-09T03:06:51;98032.88;;;15.89;95.36
34081;BME280;20358;50.272;19.026;2022-09-09T03:09:57;98040.56;;;15.92;95.10
34081;BME280;20358;50.272;19.026;2022-09-09T03:13:06;98043.44;;;15.89;94.84
34081;BME280;20358;50.272;19.026;2022-09-09T03:16:14;98043.00;;;15.84;94.82
34081;BME280;20358;50.272;19.026;2022-09-09T03:19:27;98050.19;;;15.82;94.91
34081;BME280;20358;50.272;19.026;2022-09-09T03:22:34;98044.19;;;15.80;94.82
34081;BME280;20358;50.272;19.026;2022-09-09T03:25:46;98044.06;;;15.81;95.03
34081;BME280;20358;50.272;19.026;2022-09-09T03:28:56;98052.25;;;15.78;94.62
34081;BME280;20358;50.272;19.026;2022-09-09T03:32:06;98048.03;;;15.76;94.27
34081;BME280;20358;50.272;19.026;2022-09-09T03:35:16;98053.56;;;15.73;94.09
34081;BME280;20358;50.272;19.026;2022-09-09T03:38:24;98060.41;;;15.64;94.44
34081;BME280;20358;50.272;19.026;2022-09-09T03:41:31;98052.88;;;15.60;94.52
34081;BME280;20358;50.272;19.026;2022-09-09T03:44:38;98068.13;;;15.56;94.50
34081;BME280;20358;50.272;19.026;2022-09-09T03:47:44;98066.59;;;15.54;94.57
34081;BME280;20358;50.272;19.026;2022-09-09T03:50:55;98062.50;;;15.50;94.63
34081;BME280;20358;50.272;19.026;2022-09-09T03:54:07;98062.97;;;15.44;94.73
34081;BME280;20358;50.272;19.026;2022-09-09T03:57:14;98063.22;;;15.41;94.91
34081;BME280;20358;50.272;19.026;2022-09-09T04:00:21;98072.09;;;15.40;95.14
34081;BME280;20358;50.272;19.026;2022-09-09T04:03:29;98067.91;;;15.37;95.03
34081;BME280;20358;50.272;19.026;2022-09-09T04:06:38;98068.97;;;15.34;95.06
34081;BME280;20358;50.272;19.026;2022-09-09T04:09:46;98068.38;;;15.31;95.02
34081;BME280;20358;50.272;19.026;2022-09-09T04:12:53;98064.16;;;15.28;95.26
34081;BME280;20358;50.272;19.026;2022-09-09T04:16:01;98071.16;;;15.29;95.55
34081;BME280;20358;50.272;19.026;2022-09-09T04:19:09;98082.56;;;15.30;95.17
34081;BME280;20358;50.272;19.026;2022-09-09T04:22:21;98074.03;;;15.26;95.03
34081;BME280;20358;50.272;19.026;2022-09-09T04:25:28;98074.97;;;15.25;95.31
34081;BME280;20358;50.272;19.026;2022-09-09T04:28:37;98076.78;;;15.25;95.20
34081;BME280;20358;50.272;19.026;2022-09-09T04:31:50;98082.16;;;15.23;95.24
34081;BME280;20358;50.272;19.026;2022-09-09T04:34:57;98081.94;;;15.26;95.17
34081;BME280;20358;50.272;19.026;2022-09-09T04:38:08;98082.66;;;15.28;95.21
34081;BME280;20358;50.272;19.026;2022-09-09T04:41:16;98085.19;;;15.30;95.13
34081;BME280;20358;50.272;19.026;2022-09-09T04:44:25;98079.78;;;15.31;95.28
34081;BME280;20358;50.272;19.026;2022-09-09T04:47:32;98091.78;;;15.36;95.26
34081;BME280;20358;50.272;19.026;2022-09-09T04:50:38;98076.53;;;15.39;95.09
34081;BME280;20358;50.272;19.026;2022-09-09T04:53:51;98087.56;;;15.44;95.22
34081;BME280;20358;50.272;19.026;2022-09-09T04:56:57;98090.81;;;15.48;95.01
34081;BME280;20358;50.272;19.026;2022-09-09T05:00:07;98100.06;;;15.53;95.40
34081;BME280;20358;50.272;19.026;2022-09-09T05:03:15;98101.38;;;15.59;94.98
34081;BME280;20358;50.272;19.026;2022-09-09T05:06:23;98094.88;;;15.63;94.96
34081;BME280;20358;50.272;19.026;2022-09-09T05:09:36;98094.66;;;15.66;94.56
34081;BME280;20358;50.272;19.026;2022-09-09T05:12:43;98096.91;;;15.70;94.76
34081;BME280;20358;50.272;19.026;2022-09-09T05:16:02;98092.25;;;15.74;94.43
34081;BME280;20358;50.272;19.026;2022-09-09T05:19:10;98098.94;;;15.78;94.41
34081;BME280;20358;50.272;19.026;2022-09-09T05:22:22;98104.94;;;15.80;93.98
34081;BME280;20358;50.272;19.026;2022-09-09T05:25:32;98110.00;;;15.83;94.06
34081;BME280;20358;50.272;19.026;2022-09-09T05:28:40;98115.28;;;15.83;93.64
34081;BME280;20358;50.272;19.026;2022-09-09T05:31:48;98121.25;;;15.85;93.84
34081;BME280;20358;50.272;19.026;2022-09-09T05:34:56;98115.75;;;15.88;93.49
34081;BME280;20358;50.272;19.026;2022-09-09T05:38:04;98111.19;;;15.90;93.45
34081;BME280;20358;50.272;19.026;2022-09-09T05:41:14;98115.25;;;15.94;93.49
34081;BME280;20358;50.272;19.026;2022-09-09T05:44:22;98119.47;;;15.96;93.25
34081;BME280;20358;50.272;19.026;2022-09-09T05:47:30;98116.69;;;15.98;93.28
34081;BME280;20358;50.272;19.026;2022-09-09T05:50:37;98118.97;;;16.03;93.02
34081;BME280;20358;50.272;19.026;2022-09-09T05:53:43;98118.59;;;16.07;92.91
34081;BME280;20358;50.272;19.026;2022-09-09T05:56:54;98118.22;;;16.12;92.76
34081;BME280;20358;50.272;19.026;2022-09-09T06:00:00;98117.38;;;16.11;92.13
34081;BME280;20358;50.272;19.026;2022-09-09T06:03:15;98115.72;;;16.10;92.01
34081;BME280;20358;50.272;19.026;2022-09-09T06:06:30;98115.22;;;16.16;92.30
34081;BME280;20358;50.272;19.026;2022-09-09T06:09:45;98117.84;;;16.27;92.69
34081;BME280;20358;50.272;19.026;2022-09-09T06:12:55;98118.78;;;16.37;92.61
34081;BME280;20358;50.272;19.026;2022-09-09T06:16:05;98111.75;;;16.47;92.81
34081;BME280;20358;50.272;19.026;2022-09-09T06:19:11;98122.31;;;16.58;92.05
34081;BME280;20358;50.272;19.026;2022-09-09T06:22:19;98117.94;;;16.69;92.12
34081;BME280;20358;50.272;19.026;2022-09-09T06:25:25;98112.72;;;16.78;91.84
34081;BME280;20358;50.272;19.026;2022-09-09T06:28:35;98112.78;;;16.88;91.20
34081;BME280;20358;50.272;19.026;2022-09-09T06:31:42;98122.59;;;16.97;90.91
34081;BME280;20358;50.272;19.026;2022-09-09T06:34:51;98120.13;;;17.05;90.47
34081;BME280;20358;50.272;19.026;2022-09-09T06:37:58;98121.72;;;17.07;89.58
34081;BME280;20358;50.272;19.026;2022-09-09T06:41:08;98125.66;;;17.13;89.45
34081;BME280;20358;50.272;19.026;2022-09-09T06:44:18;98127.09;;;17.17;88.16
34081;BME280;20358;50.272;19.026;2022-09-09T06:47:28;98128.50;;;17.21;88.33
34081;BME280;20358;50.272;19.026;2022-09-09T06:50:36;98125.34;;;17.27;87.86
34081;BME280;20358;50.272;19.026;2022-09-09T06:53:45;98123.13;;;17.32;87.54
34081;BME280;20358;50.272;19.026;2022-09-09T06:56:52;98120.53;;;17.42;87.41
34081;BME280;20358;50.272;19.026;2022-09-09T07:00:07;98121.53;;;17.50;87.22
34081;BME280;20358;50.272;19.026;2022-09-09T07:03:15;98117.66;;;17.54;86.43
34081;BME280;20358;50.272;19.026;2022-09-09T07:06:23;98119.63;;;17.62;86.27
34081;BME280;20358;50.272;19.026;2022-09-09T07:09:30;98113.94;;;17.66;85.31
34081;BME280;20358;50.272;19.026;2022-09-09T07:12:36;98116.31;;;17.69;85.13
34081;BME280;20358;50.272;19.026;2022-09-09T07:15:48;98117.72;;;17.73;84.36
34081;BME280;20358;50.272;19.026;2022-09-09T07:18:55;98108.34;;;17.69;83.40
34081;BME280;20358;50.272;19.026;2022-09-09T07:22:05;98105.44;;;17.72;83.81
34081;BME280;20358;50.272;19.026;2022-09-09T07:25:12;98114.41;;;17.81;84.03
34081;BME280;20358;50.272;19.026;2022-09-09T07:28:22;98105.09;;;17.87;83.52
34081;BME280;20358;50.272;19.026;2022-09-09T07:31:34;98100.47;;;17.89;82.60
34081;BME280;20358;50.272;19.026;2022-09-09T07:34:45;98098.88;;;17.97;82.54
34081;BME280;20358;50.272;19.026;2022-09-09T07:37:54;98096.91;;;18.09;82.44
34081;BME280;20358;50.272;19.026;2022-09-09T07:41:05;98102.25;;;18.28;80.82
34081;BME280;20358;50.272;19.026;2022-09-09T07:44:16;98112.19;;;18.45;79.89
34081;BME280;20358;50.272;19.026;2022-09-09T07:47:37;98119.88;;;18.48;78.66
34081;BME280;20358;50.272;19.026;2022-09-09T07:50:45;98120.84;;;18.47;78.20
34081;BME280;20358;50.272;19.026;2022-09-09T07:53:53;98121.69;;;18.57;79.06
34081;BME280;20358;50.272;19.026;2022-09-09T07:57:03;98127.41;;;18.81;78.49
34081;BME280;20358;50.272;19.026;2022-09-09T08:00:12;98134.41;;;18.92;77.27
34081;BME280;20358;50.272;19.026;2022-09-09T08:03:27;98134.16;;;18.95;77.16
34081;BME280;20358;50.272;19.026;2022-09-09T08:06:36;98141.38;;;19.22;77.34
34081;BME280;20358;50.272;19.026;2022-09-09T08:09:45;98140.75;;;19.47;77.44
34081;BME280;20358;50.272;19.026;2022-09-09T08:13:00;98137.00;;;19.86;75.47
34081;BME280;20358;50.272;19.026;2022-09-09T08:16:25;98131.00;;;19.84;73.30
34081;BME280;20358;50.272;19.026;2022-09-09T08:19:36;98132.38;;;19.88;73.94
34081;BME280;20358;50.272;19.026;2022-09-09T08:22:48;98137.09;;;19.94;73.02
34081;BME280;20358;50.272;19.026;2022-09-09T08:25:54;98141.97;;;19.99;73.57
34081;BME280;20358;50.272;19.026;2022-09-09T08:29:04;98141.03;;;20.17;73.66
34081;BME280;20358;50.272;19.026;2022-09-09T08:32:10;98132.81;;;20.29;72.41
34081;BME280;20358;50.272;19.026;2022-09-09T08:35:19;98130.56;;;20.34;72.47
34081;BME280;20358;50.272;19.026;2022-09-09T08:38:26;98137.84;;;20.32;70.45
34081;BME280;20358;50.272;19.026;2022-09-09T08:41:57;98132.81;;;20.56;71.81
34081;BME280;20358;50.272;19.026;2022-09-09T08:45:41;98132.22;;;20.79;70.34
34081;BME280;20358;50.272;19.026;2022-09-09T08:48:58;98142.38;;;21.02;71.15
34081;BME280;20358;50.272;19.026;2022-09-09T08:52:16;98143.75;;;21.23;71.01
34081;BME280;20358;50.272;19.026;2022-09-09T08:55:37;98137.47;;;21.32;69.52
34081;BME280;20358;50.272;19.026;2022-09-09T08:58:47;98138.47;;;21.31;68.96
34081;BME280;20358;50.272;19.026;2022-09-09T09:02:21;98142.34;;;21.37;68.77
34081;BME280;20358;50.272;19.026;2022-09-09T09:05:36;98139.09;;;21.51;68.69
34081;BME280;20358;50.272;19.026;2022-09-09T09:08:53;98134.38;;;21.71;68.39
34081;BME280;20358;50.272;19.026;2022-09-09T09:12:15;98146.13;;;21.86;66.91
34081;BME280;20358;50.272;19.026;2022-09-09T09:15:24;98145.47;;;21.84;65.90
34081;BME280;20358;50.272;19.026;2022-09-09T09:18:34;98142.84;;;21.92;65.74
34081;BME280;20358;50.272;19.026;2022-09-09T09:21:44;98143.56;;;22.02;63.92
34081;BME280;20358;50.272;19.026;2022-09-09T09:25:02;98141.25;;;22.07;64.22
34081;BME280;20358;50.272;19.026;2022-09-09T09:28:23;98137.63;;;22.24;64.59
34081;BME280;20358;50.272;19.026;2022-09-09T09:31:35;98143.34;;;22.37;63.85
34081;BME280;20358;50.272;19.026;2022-09-09T09:34:42;98142.81;;;22.34;62.03
34081;BME280;20358;50.272;19.026;2022-09-09T09:37:55;98139.69;;;22.38;62.39
34081;BME280;20358;50.272;19.026;2022-09-09T09:41:34;98138.00;;;22.37;62.64
34081;BME280;20358;50.272;19.026;2022-09-09T09:44:43;98132.38;;;22.56;61.11
34081;BME280;20358;50.272;19.026;2022-09-09T09:48:02;98132.88;;;22.60;59.25
34081;BME280;20358;50.272;19.026;2022-09-09T09:51:13;98133.34;;;22.47;60.78
34081;BME280;20358;50.272;19.026;2022-09-09T09:54:27;98143.03;;;22.48;60.31
34081;BME280;20358;50.272;19.026;2022-09-09T09:57:40;98137.69;;;22.48;57.84
34081;BME280;20358;50.272;19.026;2022-09-09T10:00:50;98142.00;;;22.33;59.15
34081;BME280;20358;50.272;19.026;2022-09-09T10:04:15;98146.34;;;22.34;57.76
34081;BME280;20358;50.272;19.026;2022-09-09T10:07:26;98148.94;;;22.18;55.62
34081;BME280;20358;50.272;19.026;2022-09-09T10:10:52;98132.94;;;22.18;57.34
34081;BME280;20358;50.272;19.026;2022-09-09T10:14:15;98135.31;;;22.29;59.63
34081;BME280;20358;50.272;19.026;2022-09-09T10:17:31;98134.34;;;22.54;58.56
34081;BME280;20358;50.272;19.026;2022-09-09T10:20:45;98147.25;;;22.59;56.47
34081;BME280;20358;50.272;19.026;2022-09-09T10:24:11;98136.69;;;22.49;57.91
34081;BME280;20358;50.272;19.026;2022-09-09T10:27:32;98150.22;;;22.56;56.51
34081;BME280;20358;50.272;19.026;2022-09-09T10:30:50;98160.06;;;22.47;56.62
34081;BME280;20358;50.272;19.026;2022-09-09T10:34:14;98166.38;;;22.38;55.53
34081;BME280;20358;50.272;19.026;2022-09-09T10:37:37;98164.63;;;22.21;56.20
34081;BME280;20358;50.272;19.026;2022-09-09T10:41:14;98166.66;;;22.19;58.31
34081;BME280;20358;50.272;19.026;2022-09-09T10:44:29;98175.38;;;22.37;57.58
34081;BME280;20358;50.272;19.026;2022-09-09T10:48:02;98172.38;;;22.32;55.92
34081;BME280;20358;50.272;19.026;2022-09-09T10:51:28;98164.28;;;22.16;56.83
34081;BME280;20358;50.272;19.026;2022-09-09T10:54:48;98172.03;;;22.35;57.63
34081;BME280;20358;50.272;19.026;2022-09-09T10:58:02;98170.72;;;22.39;56.70
34081;BME280;20358;50.272;19.026;2022-09-09T11:01:15;98167.72;;;22.42;56.72
34081;BME280;20358;50.272;19.026;2022-09-09T11:04:29;98162.63;;;22.23;56.57
34081;BME280;20358;50.272;19.026;2022-09-09T11:07:41;98155.25;;;22.09;56.68
34081;BME280;20358;50.272;19.026;2022-09-09T11:10:52;98166.94;;;22.08;53.77
34081;BME280;20358;50.272;19.026;2022-09-09T11:14:03;98171.41;;;22.08;54.34
34081;BME280;20358;50.272;19.026;2022-09-09T11:17:15;98162.91;;;22.04;54.64
34081;BME280;20358;50.272;19.026;2022-09-09T11:20:26;98162.59;;;22.07;55.15
34081;BME280;20358;50.272;19.026;2022-09-09T11:23:39;98169.34;;;22.27;55.77
34081;BME280;20358;50.272;19.026;2022-09-09T11:26:50;98173.75;;;22.52;55.00
34081;BME280;20358;50.272;19.026;2022-09-09T11:30:15;98170.47;;;22.66;53.49
34081;BME280;20358;50.272;19.026;2022-09-09T11:33:57;98170.97;;;22.70;55.03
34081;BME280;20358;50.272;19.026;2022-09-09T11:37:28;98167.13;;;22.73;54.25
34081;BME280;20358;50.272;19.026;2022-09-09T11:40:41;98161.31;;;22.77;54.58
34081;BME280;20358;50.272;19.026;2022-09-09T11:43:49;98165.81;;;22.69;51.11
34081;BME280;20358;50.272;19.026;2022-09-09T11:46:57;98176.13;;;22.63;51.07
34081;BME280;20358;50.272;19.026;2022-09-09T11:50:28;98169.47;;;22.76;52.64
34081;BME280;20358;50.272;19.026;2022-09-09T11:53:47;98171.69;;;22.96;51.72
34081;BME280;20358;50.272;19.026;2022-09-09T11:56:54;98155.16;;;22.93;50.58
34081;BME280;20358;50.272;19.026;2022-09-09T12:00:03;98163.84;;;22.87;51.24
34081;BME280;20358;50.272;19.026;2022-09-09T12:03:39;98162.97;;;22.78;50.23
34081;BME280;20358;50.272;19.026;2022-09-09T12:06:52;98166.41;;;22.54;50.24
34081;BME280;20358;50.272;19.026;2022-09-09T12:10:04;98166.41;;;22.54;52.41
34081;BME280;20358;50.272;19.026;2022-09-09T12:13:16;98161.41;;;22.59;52.27
34081;BME280;20358;50.272;19.026;2022-09-09T12:16:31;98157.47;;;22.72;52.50
34081;BME280;20358;50.272;19.026;2022-09-09T12:19:40;98162.13;;;22.78;52.41
34081;BME280;20358;50.272;19.026;2022-09-09T12:23:06;98162.47;;;22.91;53.11
34081;BME280;20358;50.272;19.026;2022-09-09T12:26:30;98162.16;;;22.94;51.62
34081;BME280;20358;50.272;19.026;2022-09-09T12:29:43;98169.34;;;23.01;52.64
34081;BME280;20358;50.272;19.026;2022-09-09T12:33:01;98169.53;;;23.08;52.71
34081;BME280;20358;50.272;19.026;2022-09-09T12:36:11;98164.84;;;23.02;51.18
34081;BME280;20358;50.272;19.026;2022-09-09T12:39:24;98170.84;;;22.96;52.26
34081;BME280;20358;50.272;19.026;2022-09-09T12:42:39;98166.84;;;23.00;52.02
34081;BME280;20358;50.272;19.026;2022-09-09T12:45:48;98166.34;;;23.12;51.82
34081;BME280;20358;50.272;19.026;2022-09-09T12:49:00;98171.88;;;23.19;51.27
34081;BME280;20358;50.272;19.026;2022-09-09T12:52:16;98163.34;;;23.23;50.31
34081;BME280;20358;50.272;19.026;2022-09-09T12:55:25;98153.16;;;23.19;49.21
34081;BME280;20358;50.272;19.026;2022-09-09T12:58:38;98159.16;;;23.21;50.65
34081;BME280;20358;50.272;19.026;2022-09-09T13:01:55;98162.84;;;23.20;50.52
34081;BME280;20358;50.272;19.026;2022-09-09T13:05:15;98164.19;;;23.16;50.48
34081;BME280;20358;50.272;19.026;2022-09-09T13:08:22;98162.19;;;23.18;50.01
34081;BME280;20358;50.272;19.026;2022-09-09T13:11:34;98156.50;;;23.13;50.05
34081;BME280;20358;50.272;19.026;2022-09-09T13:14:46;98152.81;;;23.22;50.73
34081;BME280;20358;50.272;19.026;2022-09-09T13:17:56;98154.63;;;23.29;50.40
34081;BME280;20358;50.272;19.026;2022-09-09T13:21:05;98144.81;;;23.38;50.66
34081;BME280;20358;50.272;19.026;2022-09-09T13:24:25;98143.47;;;23.42;50.56
34081;BME280;20358;50.272;19.026;2022-09-09T13:27:33;98139.94;;;23.34;50.38
34081;BME280;20358;50.272;19.026;2022-09-09T13:30:56;98146.47;;;23.39;49.69
34081;BME280;20358;50.272;19.026;2022-09-09T13:34:11;98137.41;;;23.32;50.17
34081;BME280;20358;50.272;19.026;2022-09-09T13:37:23;98128.75;;;23.30;50.24
34081;BME280;20358;50.272;19.026;2022-09-09T13:40:30;98131.91;;;23.34;50.17
34081;BME280;20358;50.272;19.026;2022-09-09T13:43:43;98131.75;;;23.43;50.13
34081;BME280;20358;50.272;19.026;2022-09-09T13:47:03;98123.38;;;23.54;50.38
34081;BME280;20358;50.272;19.026;2022-09-09T13:50:20;98125.72;;;23.57;49.89
34081;BME280;20358;50.272;19.026;2022-09-09T13:53:27;98119.34;;;23.58;49.33
34081;BME280;20358;50.272;19.026;2022-09-09T13:56:34;98108.28;;;23.69;49.97
34081;BME280;20358;50.272;19.026;2022-09-09T13:59:40;98114.94;;;23.81;48.68
34081;BME280;20358;50.272;19.026;2022-09-09T14:03:09;98119.31;;;23.74;49.34
34081;BME280;20358;50.272;19.026;2022-09-09T14:06:16;98106.75;;;23.83;49.76
34081;BME280;20358;50.272;19.026;2022-09-09T14:09:25;98096.66;;;23.93;49.12
34081;BME280;20358;50.272;19.026;2022-09-09T14:12:31;98097.88;;;23.82;47.63
34081;BME280;20358;50.272;19.026;2022-09-09T14:15:38;98099.41;;;23.77;48.51
34081;BME280;20358;50.272;19.026;2022-09-09T14:18:47;98092.22;;;23.77;48.28
34081;BME280;20358;50.272;19.026;2022-09-09T14:21:54;98091.88;;;23.80;47.46
34081;BME280;20358;50.272;19.026;2022-09-09T14:25:00;98096.16;;;23.89;47.71
34081;BME280;20358;50.272;19.026;2022-09-09T14:28:11;98093.81;;;23.95;46.25
34081;BME280;20358;50.272;19.026;2022-09-09T14:31:17;98091.03;;;23.80;46.38
34081;BME280;20358;50.272;19.026;2022-09-09T14:34:27;98093.53;;;23.81;46.60
34081;BME280;20358;50.272;19.026;2022-09-09T14:37:34;98087.50;;;23.87;47.24
34081;BME280;20358;50.272;19.026;2022-09-09T14:40:45;98090.31;;;23.94;47.11
34081;BME280;20358;50.272;19.026;2022-09-09T14:43:51;98089.78;;;23.99;46.91
34081;BME280;20358;50.272;19.026;2022-09-09T14:46:58;98090.16;;;23.87;46.89
34081;BME280;20358;50.272;19.026;2022-09-09T14:50:08;98087.06;;;23.68;47.24
34081;BME280;20358;50.272;19.026;2022-09-09T14:53:18;98086.25;;;23.59;48.06
34081;BME280;20358;50.272;19.026;2022-09-09T14:56:26;98086.63;;;23.48;47.79
34081;BME280;20358;50.272;19.026;2022-09-09T14:59:33;98083.28;;;23.46;48.03
34081;BME280;20358;50.272;19.026;2022-09-09T15:02:39;98088.97;;;23.43;47.47
34081;BME280;20358;50.272;19.026;2022-09-09T15:05:49;98091.81;;;23.42;48.31
34081;BME280;20358;50.272;19.026;2022-09-09T15:08:56;98085.97;;;23.46;48.06
34081;BME280;20358;50.272;19.026;2022-09-09T15:12:06;98089.47;;;23.47;47.48
34081;BME280;20358;50.272;19.026;2022-09-09T15:15:12;98092.50;;;23.44;47.28
34081;BME280;20358;50.272;19.026;2022-09-09T15:18:19;98099.84;;;23.42;47.56
34081;BME280;20358;50.272;19.026;2022-09-09T15:21:29;98098.16;;;23.33;47.48
34081;BME280;20358;50.272;19.026;2022-09-09T15:24:36;98090.34;;;23.15;48.20
34081;BME280;20358;50.272;19.026;2022-09-09T15:27:43;98091.84;;;23.01;48.70
34081;BME280;20358;50.272;19.026;2022-09-09T15:30:50;98096.72;;;22.90;48.60
34081;BME280;20358;50.272;19.026;2022-09-09T15:33:57;98095.88;;;22.81;49.23
34081;BME280;20358;50.272;19.026;2022-09-09T15:37:09;98091.50;;;22.80;49.21
34081;BME280;20358;50.272;19.026;2022-09-09T15:40:16;98088.03;;;22.80;50.19
34081;BME280;20358;50.272;19.026;2022-09-09T15:43:23;98088.69;;;22.82;50.50
34081;BME280;20358;50.272;19.026;2022-09-09T15:46:30;98090.00;;;22.78;50.08
34081;BME280;20358;50.272;19.026;2022-09-09T15:49:39;98091.03;;;22.69;49.82
34081;BME280;20358;50.272;19.026;2022-09-09T15:52:48;98095.34;;;22.61;49.75
34081;BME280;20358;50.272;19.026;2022-09-09T15:55:56;98094.31;;;22.46;50.27
34081;BME280;20358;50.272;19.026;2022-09-09T15:59:03;98096.63;;;22.33;50.39
34081;BME280;20358;50.272;19.026;2022-09-09T16:02:10;98100.44;;;22.23;50.33
34081;BME280;20358;50.272;19.026;2022-09-09T16:05:19;98089.22;;;22.11;50.51
34081;BME280;20358;50.272;19.026;2022-09-09T16:08:33;98091.22;;;22.09;50.80
34081;BME280;20358;50.272;19.026;2022-09-09T16:11:40;98083.53;;;22.06;51.23
34081;BME280;20358;50.272;19.026;2022-09-09T16:14:46;98080.84;;;21.98;52.00
34081;BME280;20358;50.272;19.026;2022-09-09T16:17:53;98075.97;;;21.93;52.58
34081;BME280;20358;50.272;19.026;2022-09-09T16:21:00;98076.59;;;21.87;53.04
34081;BME280;20358;50.272;19.026;2022-09-09T16:24:13;98078.06;;;21.82;53.44
34081;BME280;20358;50.272;19.026;2022-09-09T16:27:21;98066.38;;;21.75;53.56
34081;BME280;20358;50.272;19.026;2022-09-09T16:30:27;98067.88;;;21.69;53.74
34081;BME280;20358;50.272;19.026;2022-09-09T16:33:34;98074.66;;;21.64;53.95
34081;BME280;20358;50.272;19.026;2022-09-09T16:36:41;98068.31;;;21.57;54.53
34081;BME280;20358;50.272;19.026;2022-09-09T16:39:52;98065.47;;;21.50;54.72
34081;BME280;20358;50.272;19.026;2022-09-09T16:42:58;98069.06;;;21.41;54.95
34081;BME280;20358;50.272;19.026;2022-09-09T16:46:13;98074.34;;;21.33;55.50